• Join FlightAware (Why Join?)
  • Login
  • US Flag 
06:20PM EDT


 

Airport Tracker/Info


-or-


 

Live Flight TrackerFlight Track Log ✈ EJA929P ✈ 27-Dec-2013 ✈ MWCR / GCM - KIAD

Flight Track Log - Related Links

Times and Time Zones

All times are in EST time to prevent confusion due to time zone crossing. See the EJA929P flight status page for this flight to view local times or setup timezone preferences in your user account.

Time Position Orientation Groundspeed Altitude Reporting Facility
EST Latitude Longitude Course Direction KTS MPH feet Rate Location/Type
02:26PM 22.8397 -81.4067 North 491 565 40,000  Level Miami Center
02:27PM 22.0887 -80.8844 North  Level Estimated
02:27PM 22.9969 -81.3806 North 526 605 40,000  Level Miami Center
02:28PM 22.2218 -80.8614 North  Level Estimated
02:28PM 23.1522 -81.3544 North 549 632 40,000  Level Miami Center
02:29PM 22.3549 -80.8384 North  Level Estimated
02:29PM 23.3097 -81.3306 North 559 643 40,000  Level Miami Center
02:30PM 22.4880 -80.8153 North  Level Estimated
02:30PM 23.4650 -81.3019 10° North 559 643 40,000  Level Miami Center
02:31PM 23.6161 -81.2800 North 559 643 40,000  Level Miami Center
02:32PM 23.7714 -81.2536 North 559 643 40,000 -60 Level Miami Center
02:33PM 23.9350 -81.2253 North 559 643 39,900  Descending Miami Center
02:34PM 24.0861 -81.2011 North 548 631 40,000  Climbing Miami Center
02:35PM 24.2314 -81.1583 15° North 543 625 40,000  Level Miami Center
02:36PM 24.3675 -81.0717 30° Northeast 537 618 40,000  Level Miami Center
02:37PM 24.5061 -80.9758 32° Northeast 560 644 40,000 300 Level Miami Center
02:38PM 24.6403 -80.8822 32° Northeast 572 658 40,700 780 Climbing Miami Center
02:39PM 24.7742 -80.7928 31° Northeast 572 658 41,600 840 Climbing Miami Center
02:40PM 24.9061 -80.7053 31° Northeast 562 647 42,400 900 Climbing Miami Center
02:41PM 25.0378 -80.6153 32° Northeast 556 640 43,400 900 Climbing Miami Center
02:42PM 25.1656 -80.5253 33° Northeast 550 633 44,200 660 Climbing Miami Center
02:43PM 25.2931 -80.4350 33° Northeast 550 633 44,800 360 Climbing Miami Center
02:44PM 25.4206 -80.3467 32° Northeast 550 633 45,000 60 Climbing Miami Center
02:45PM 25.5522 -80.2536 33° Northeast 550 633 45,000  Level Miami Center
02:46PM 25.6858 -80.1631 31° Northeast 556 640 45,000  Level Miami Center
02:47PM 25.8067 -80.0833 31° Northeast 563 648 45,000  Level Miami Center
02:48PM 25.9339 -79.9919 33° Northeast 553 636 45,000  Level Miami Center
02:49PM 26.0633 -79.9028 32° Northeast 548 631 45,000  Level Miami Center
02:50PM 26.1947 -79.8111 32° Northeast 548 631 45,000  Level Miami Center
02:51PM 26.3239 -79.7217 32° Northeast 543 625 45,000  Level Miami Center
02:52PM 26.4636 -79.6231 32° Northeast 543 625 45,000  Level Miami Center
02:53PM 26.5800 -79.5397 33° Northeast 548 631 45,000  Level Miami Center
02:54PM 26.7239 -79.4406 32° Northeast 553 636 45,000  Level Miami Center
02:55PM 26.8550 -79.3481 32° Northeast 553 636 45,000  Level Miami Center
02:56PM 26.9714 -79.2644 33° Northeast 553 636 45,000  Level Miami Center
02:57PM 27.0981 -79.1736 33° Northeast 553 636 45,000  Level Miami Center
02:58PM 27.2458 -79.0692 32° Northeast 560 644 45,000  Level Miami Center
02:59PM 27.3747 -78.9781 32° Northeast 551 634 45,000  Level Miami Center
03:00PM 27.5008 -78.9217 22° Northeast 543 625 45,000  Level Miami Center
03:01PM 27.6375 -78.8444 27° Northeast 545 627 45,000  Level Miami Center
03:02PM 27.7911 -78.7603 26° Northeast 552 635 45,000 120 Level Miami Center
03:03PM 27.9089 -78.6894 28° Northeast 547 629 45,300 420 Climbing Miami Center
03:04PM 28.0456 -78.6092 27° Northeast 542 624 45,900 600 Climbing Miami Center
03:05PM 28.1822 -78.5289 27° Northeast 542 624 46,500 480 Climbing Miami Center
03:06PM 28.3106 -78.4506 28° Northeast 530 610 46,900 240 Climbing Miami Center
03:07PM 28.4528 -78.4150 12° North 516 594 47,000  Climbing Miami Center
03:08PM 28.5992 -78.4003 North 516 594 47,000  Level Miami Center
03:09PM 28.7433 -78.3906 North 511 588 47,000  Level Miami Center
03:10PM 28.8875 -78.3783 North 516 594 47,000  Level Miami Center
03:11PM 29.0314 -78.3661 North 516 594 47,000  Level Miami Center
03:12PM 29.1756 -78.3514 North 521 600 47,000  Level Miami Center
03:13PM 29.3217 -78.3439 North 516 594 47,000  Level Miami Center
03:14PM 29.4636 -78.3289 North 517 595 47,000  Level Miami Center
03:15PM 29.6058 -78.3142 North 517 595 47,000  Level Miami Center
03:18PM 30.1617 -78.2636 North 526 605 47,000  Level Jacksonville Center
03:19PM 30.3072 -78.2517 North 526 605 47,000  Level Jacksonville Center
03:20PM 30.4592 -78.2394 North 526 605 47,000  Level Jacksonville Center
03:21PM 30.6006 -78.2253 North 521 600 47,000  Level Jacksonville Center
03:22PM 30.7381 -78.2139 North 529 609 47,000  Level Jacksonville Center
03:23PM 30.8836 -78.1994 North 529 609 47,000  Level Jacksonville Center
03:24PM 31.0272 -78.1875 North 534 615 47,000  Level Jacksonville Center
03:25PM 31.1517 -78.1667 North 534 615 47,000  Level Jacksonville Center
03:26PM 31.2975 -78.1592 North 540 621 47,000  Level Jacksonville Center
03:27PM 31.4411 -78.1469 North 540 621 47,000  Level Jacksonville Center
03:28PM 31.5844 -78.1300 North 530 610 47,000  Level Jacksonville Center
03:29PM 31.7303 -78.1225 North 530 610 47,000  Level Jacksonville Center
03:30PM 31.8756 -78.1053 North 530 610 47,000 -300 Level Jacksonville Center
03:31PM 32.0211 -78.0903 North 536 617 46,400 -720 Descending Jacksonville Center
03:32PM 32.1692 -78.0800 North 536 617 45,600 -900 Descending Jacksonville Center
03:33PM 32.3125 -78.0675 North 531 611 44,600 -1,560 Descending Jacksonville Center
03:34PM 32.4622 -78.0547 North 536 617 42,500 -1,800 Descending Jacksonville Center
03:35PM 32.6183 -78.0389 North 546 628 41,000 -1,200 Descending Jacksonville Center
03:36PM 32.7722 -78.0258 North 551 634 40,200 -960 Descending Jacksonville Center
03:37PM 32.9219 -78.0103 North 551 634 39,100 -1,080 Descending Jacksonville Center
03:38PM 33.0694 -77.9972 North 540 621 38,100 -780 Descending Jacksonville Center
03:40PM 33.3347 -77.9725 North 535 616 37,000 -420 Descending Washington Center
03:41PM 33.4808 -77.9594 North 535 616 37,000  Level Washington Center
03:42PM 33.6231 -77.9458 North 523 602 37,000  Level Washington Center
03:43PM 33.7650 -77.9325 North 517 595 37,000  Level Washington Center
03:44PM 33.9219 -77.9169 North 511 588 37,000  Level Washington Center
03:45PM 34.0578 -77.9056 North 524 603 37,000  Level Washington Center
03:46PM 34.2250 -77.8878 North 533 613 37,000  Level Washington Center
03:47PM 34.3753 -77.8767 North 538 619 37,000  Level Washington Center
03:48PM 34.5214 -77.8758 360° North 532 612 37,000  Level Washington Center
03:49PM 34.6697 -77.8722 North 532 612 37,000  Level Washington Center
03:50PM 34.8158 -77.8714 360° North 532 612 37,000  Level Washington Center
03:51PM 34.9619 -77.8653 North 532 612 37,000  Level Washington Center
03:52PM 35.1100 -77.8619 North 532 612 37,000  Level Washington Center
03:53PM 35.2583 -77.8611 360° North 532 612 37,000  Level Washington Center
03:54PM 35.4064 -77.8600 360° North 532 612 37,000  Level Washington Center
03:55PM 35.5567 -77.8567 North 532 612 37,000 -180 Level Washington Center
03:56PM 35.7028 -77.8531 North 532 612 36,700 -1,080 Descending Washington Center
03:57PM 35.8489 -77.8522 360° North 532 612 34,900 -1,980 Descending Washington Center
03:58PM 35.9950 -77.8511 360° North 532 612 32,900 -2,340 Descending Washington Center
03:59PM 36.1389 -77.8503 360° North 527 606 30,200 -2,640 Descending Washington Center
04:00PM 36.2850 -77.8467 North 527 606 27,600 -1,620 Descending Washington Center
04:01PM 36.4250 -77.8456 360° North 508 585 27,000 -360 Descending Washington Center
04:02PM 36.5606 -77.8442 360° North 494 568 27,000  Level Washington Center
04:03PM 36.6983 -77.8431 360° North 494 568 27,000  Level Washington Center
04:04PM 36.8361 -77.8392 North 494 568 27,000  Level Washington Center
04:05PM 36.9717 -77.8381 360° North 494 568 27,000 -720 Level Washington Center
04:06PM 37.1114 -77.8342 North 494 568 25,600 -1,620 Descending Washington Center
04:07PM 37.2450 -77.8331 360° North 494 568 23,800 -1,560 Descending Washington Center
04:08PM 37.3767 -77.8264 North 484 557 22,500 -1,620 Descending Washington Center
04:09PM 37.5047 -77.7753 18° North 473 544 20,600 -1,800 Descending Washington Center
04:10PM 37.6247 -77.7183 21° North 468 539 19,000 -1,620 Descending Washington Center
04:11PM 37.7406 -77.6586 22° Northeast 455 524 17,400 -1,860 Descending Washington Center
04:12PM 37.8497 -77.6064 21° North 434 499 15,400 -2,760 Descending Washington Center
04:13PM 37.9528 -77.5564 21° North 409 471 12,000 -2,700 Descending Washington Center
04:14PM 38.0411 -77.5164 20° North 393 452 10,000 -1,020 Descending Washington Center
04:15PM 38.1208 -77.4764 22° Northeast 351 404 10,000  Level Washington Center
04:16PM 38.1944 -77.4386 22° Northeast 305 351 10,000  Level Washington Center
04:17PM 38.2639 -77.3978 25° Northeast 285 328 10,000 -120 Level Washington Center
04:18PM 38.3333 -77.3572 25° Northeast 272 313 9,800 -840 Descending Washington Center
04:19PM 38.4042 -77.3564 North 252 290 8,400 -1,380 Descending Washington Center
04:20PM 38.4750 -77.3633 356° North 246 283 7,100 -1,320 Descending Washington Center
04:21PM 38.5439 -77.3647 359° North 246 283 5,800 -1,080 Descending Washington Center
04:22PM 38.6125 -77.3664 359° North 246 283 5,000 -420 Descending Washington Center
04:23PM 38.6856 -77.3631 North 253 291 5,000 -420 Level Washington Center
04:25PM 38.8000 -77.3500 North 257 296 4,100 -780 Descending Potomac TRACON
04:26PM 38.8667 -77.3500 360° North 245 282 3,200 -600 Descending Potomac TRACON
04:27PM 38.9333 -77.3500 360° North 257 296 3,000 -360 Descending Potomac TRACON
04:28PM 39.0167 -77.3500 360° North 251 289 2,500 -480 Descending Potomac TRACON
04:29PM 39.0667 -77.4000 322° Northwest 241 277 2,000 -300 Descending Potomac TRACON
04:30PM 39.0333 -77.4333 218° Southwest 257 296 1,900 -540 Descending Potomac TRACON
04:31PM 38.9833 -77.4333 180° South 157 181 1,000 -900 Descending Potomac TRACON
04:33PM 38.9474 -77.4599 173° South  Level Estimated
04:40PM 38.9474 -77.4599 350° North  Level Estimated